sensor_id;sensor_type;location;lat;lon;timestamp;temperature;humidity
56725;DHT22;42608;52.776;6.968;2022-11-15T00:02:01;7.70;99.90
56725;DHT22;42608;52.776;6.968;2022-11-15T00:04:29;7.70;99.90
56725;DHT22;42608;52.776;6.968;2022-11-15T00:06:54;7.70;99.90
56725;DHT22;42608;52.776;6.968;2022-11-15T00:09:20;7.70;99.90
56725;DHT22;42608;52.776;6.968;2022-11-15T00:11:45;7.70;99.90
56725;DHT22;42608;52.776;6.968;2022-11-15T00:14:11;7.60;99.90
56725;DHT22;42608;52.776;6.968;2022-11-15T00:16:37;7.70;99.90
56725;DHT22;42608;52.776;6.968;2022-11-15T00:19:02;7.70;99.90
56725;DHT22;42608;52.776;6.968;2022-11-15T00:21:28;7.70;99.90
56725;DHT22;42608;52.776;6.968;2022-11-15T00:23:53;7.70;99.90
56725;DHT22;42608;52.776;6.968;2022-11-15T00:26:19;7.80;99.90
56725;DHT22;42608;52.776;6.968;2022-11-15T00:28:44;7.80;99.90
56725;DHT22;42608;52.776;6.968;2022-11-15T00:31:13;7.80;99.90
56725;DHT22;42608;52.776;6.968;2022-11-15T00:33:39;7.80;99.90
56725;DHT22;42608;52.776;6.968;2022-11-15T00:36:08;7.80;99.90
56725;DHT22;42608;52.776;6.968;2022-11-15T00:38:38;7.80;99.90
56725;DHT22;42608;52.776;6.968;2022-11-15T00:41:04;7.80;99.90
56725;DHT22;42608;52.776;6.968;2022-11-15T00:43:30;7.80;99.90
56725;DHT22;42608;52.776;6.968;2022-11-15T00:45:55;7.80;99.90
56725;DHT22;42608;52.776;6.968;2022-11-15T00:48:21;7.90;99.90
56725;DHT22;42608;52.776;6.968;2022-11-15T00:50:47;7.90;99.90
56725;DHT22;42608;52.776;6.968;2022-11-15T00:53:13;7.90;99.90
56725;DHT22;42608;52.776;6.968;2022-11-15T00:55:38;7.90;99.90
56725;DHT22;42608;52.776;6.968;2022-11-15T00:58:04;7.90;99.90
56725;DHT22;42608;52.776;6.968;2022-11-15T01:00:30;7.90;99.90
56725;DHT22;42608;52.776;6.968;2022-11-15T01:02:55;7.90;99.90
56725;DHT22;42608;52.776;6.968;2022-11-15T01:05:21;7.90;99.90
56725;DHT22;42608;52.776;6.968;2022-11-15T01:07:46;7.90;99.90
56725;DHT22;42608;52.776;6.968;2022-11-15T01:10:12;7.90;99.90
56725;DHT22;42608;52.776;6.968;2022-11-15T01:12:37;7.90;99.90
56725;DHT22;42608;52.776;6.968;2022-11-15T01:15:04;8.00;99.90
56725;DHT22;42608;52.776;6.968;2022-11-15T01:17:30;8.00;99.90
56725;DHT22;42608;52.776;6.968;2022-11-15T01:19:55;8.00;99.90
56725;DHT22;42608;52.776;6.968;2022-11-15T01:22:21;8.00;99.90
56725;DHT22;42608;52.776;6.968;2022-11-15T01:24:46;8.00;99.90
56725;DHT22;42608;52.776;6.968;2022-11-15T01:27:12;8.00;99.90
56725;DHT22;42608;52.776;6.968;2022-11-15T01:29:37;8.00;99.90
56725;DHT22;42608;52.776;6.968;2022-11-15T01:32:03;8.00;99.90
56725;DHT22;42608;52.776;6.968;2022-11-15T01:34:29;8.00;99.90
56725;DHT22;42608;52.776;6.968;2022-11-15T01:36:54;8.00;99.90
56725;DHT22;42608;52.776;6.968;2022-11-15T01:39:20;8.00;99.90
56725;DHT22;42608;52.776;6.968;2022-11-15T01:41:45;8.00;99.90
56725;DHT22;42608;52.776;6.968;2022-11-15T01:46:55;8.10;99.90
56725;DHT22;42608;52.776;6.968;2022-11-15T01:49:21;8.10;99.90
56725;DHT22;42608;52.776;6.968;2022-11-15T01:51:47;8.10;99.90
56725;DHT22;42608;52.776;6.968;2022-11-15T01:54:14;8.10;99.90
56725;DHT22;42608;52.776;6.968;2022-11-15T01:56:42;8.10;99.90
56725;DHT22;42608;52.776;6.968;2022-11-15T01:59:09;8.10;99.90
56725;DHT22;42608;52.776;6.968;2022-11-15T02:01:35;8.10;99.90
56725;DHT22;42608;52.776;6.968;2022-11-15T02:04:06;8.10;99.90
56725;DHT22;42608;52.776;6.968;2022-11-15T02:06:32;8.10;99.90
56725;DHT22;42608;52.776;6.968;2022-11-15T02:08:57;8.10;99.90
56725;DHT22;42608;52.776;6.968;2022-11-15T02:11:24;8.10;99.90
56725;DHT22;42608;52.776;6.968;2022-11-15T02:13:49;8.20;99.90
56725;DHT22;42608;52.776;6.968;2022-11-15T02:18:57;8.10;99.90
56725;DHT22;42608;52.776;6.968;2022-11-15T02:21:28;8.20;99.90
56725;DHT22;42608;52.776;6.968;2022-11-15T02:29:11;8.20;99.90
56725;DHT22;42608;52.776;6.968;2022-11-15T02:39:40;8.20;99.90
56725;DHT22;42608;52.776;6.968;2022-11-15T02:42:08;8.20;99.90
56725;DHT22;42608;52.776;6.968;2022-11-15T02:44:54;8.30;99.90
56725;DHT22;42608;52.776;6.968;2022-11-15T02:47:21;8.30;99.90
56725;DHT22;42608;52.776;6.968;2022-11-15T02:49:51;8.30;99.90
56725;DHT22;42608;52.776;6.968;2022-11-15T02:52:18;8.30;99.90
56725;DHT22;42608;52.776;6.968;2022-11-15T02:54:57;8.30;99.90
56725;DHT22;42608;52.776;6.968;2022-11-15T03:13:01;8.40;99.90
56725;DHT22;42608;52.776;6.968;2022-11-15T03:15:31;8.40;99.90
56725;DHT22;42608;52.776;6.968;2022-11-15T03:18:05;8.50;99.90
56725;DHT22;42608;52.776;6.968;2022-11-15T03:20:34;8.50;99.90
56725;DHT22;42608;52.776;6.968;2022-11-15T03:23:01;8.50;99.90
56725;DHT22;42608;52.776;6.968;2022-11-15T03:25:28;8.50;99.90
56725;DHT22;42608;52.776;6.968;2022-11-15T03:27:55;8.50;99.90
56725;DHT22;42608;52.776;6.968;2022-11-15T03:30:21;8.50;99.90
56725;DHT22;42608;52.776;6.968;2022-11-15T03:32:49;8.50;99.90
56725;DHT22;42608;52.776;6.968;2022-11-15T03:35:17;8.50;99.90
56725;DHT22;42608;52.776;6.968;2022-11-15T03:37:47;8.60;99.90
56725;DHT22;42608;52.776;6.968;2022-11-15T03:40:15;8.60;99.90
56725;DHT22;42608;52.776;6.968;2022-11-15T03:47:33;8.60;99.90
56725;DHT22;42608;52.776;6.968;2022-11-15T03:50:01;8.60;99.90
56725;DHT22;42608;52.776;6.968;2022-11-15T03:52:30;8.70;99.90
56725;DHT22;42608;52.776;6.968;2022-11-15T03:54:56;8.70;99.90
56725;DHT22;42608;52.776;6.968;2022-11-15T03:57:22;8.70;99.90
56725;DHT22;42608;52.776;6.968;2022-11-15T03:59:48;8.70;99.90
56725;DHT22;42608;52.776;6.968;2022-11-15T04:02:16;8.70;99.90
56725;DHT22;42608;52.776;6.968;2022-11-15T04:04:42;8.70;99.90
56725;DHT22;42608;52.776;6.968;2022-11-15T04:07:07;8.70;99.90
56725;DHT22;42608;52.776;6.968;2022-11-15T04:09:33;8.70;99.90
56725;DHT22;42608;52.776;6.968;2022-11-15T04:12:18;8.80;99.90
56725;DHT22;42608;52.776;6.968;2022-11-15T04:15:06;8.80;99.90
56725;DHT22;42608;52.776;6.968;2022-11-15T04:20:04;8.80;99.90
56725;DHT22;42608;52.776;6.968;2022-11-15T04:22:48;8.80;99.90
56725;DHT22;42608;52.776;6.968;2022-11-15T04:25:33;8.80;99.90
56725;DHT22;42608;52.776;6.968;2022-11-15T04:27:58;8.90;99.90
56725;DHT22;42608;52.776;6.968;2022-11-15T04:30:24;8.80;99.90
56725;DHT22;42608;52.776;6.968;2022-11-15T04:32:49;8.90;99.90
56725;DHT22;42608;52.776;6.968;2022-11-15T04:35:15;8.90;99.90
56725;DHT22;42608;52.776;6.968;2022-11-15T04:37:40;8.90;99.90
56725;DHT22;42608;52.776;6.968;2022-11-15T04:40:06;8.90;99.90
56725;DHT22;42608;52.776;6.968;2022-11-15T04:42:32;8.90;99.90
56725;DHT22;42608;52.776;6.968;2022-11-15T04:44:57;8.90;99.90
56725;DHT22;42608;52.776;6.968;2022-11-15T04:47:23;8.90;99.90
56725;DHT22;42608;52.776;6.968;2022-11-15T04:49:48;8.90;99.90
56725;DHT22;42608;52.776;6.968;2022-11-15T04:52:14;8.90;99.90
56725;DHT22;42608;52.776;6.968;2022-11-15T04:54:39;8.90;99.90
56725;DHT22;42608;52.776;6.968;2022-11-15T04:57:07;9.00;99.90
56725;DHT22;42608;52.776;6.968;2022-11-15T04:59:33;9.00;99.90
56725;DHT22;42608;52.776;6.968;2022-11-15T05:01:58;9.00;99.90
56725;DHT22;42608;52.776;6.968;2022-11-15T05:04:24;9.00;99.90
56725;DHT22;42608;52.776;6.968;2022-11-15T05:06:50;9.00;99.90
56725;DHT22;42608;52.776;6.968;2022-11-15T05:09:16;9.00;99.90
56725;DHT22;42608;52.776;6.968;2022-11-15T05:11:42;9.10;99.90
56725;DHT22;42608;52.776;6.968;2022-11-15T05:14:07;9.10;99.90
56725;DHT22;42608;52.776;6.968;2022-11-15T05:16:33;9.10;99.90
56725;DHT22;42608;52.776;6.968;2022-11-15T05:18:58;9.10;99.90
56725;DHT22;42608;52.776;6.968;2022-11-15T05:21:24;9.10;99.90
56725;DHT22;42608;52.776;6.968;2022-11-15T05:23:49;9.10;99.90
56725;DHT22;42608;52.776;6.968;2022-11-15T05:26:15;9.20;99.90
56725;DHT22;42608;52.776;6.968;2022-11-15T05:28:41;9.20;99.90
56725;DHT22;42608;52.776;6.968;2022-11-15T05:31:07;9.20;99.90
56725;DHT22;42608;52.776;6.968;2022-11-15T05:33:34;9.20;99.90
56725;DHT22;42608;52.776;6.968;2022-11-15T05:38:35;9.20;99.90
56725;DHT22;42608;52.776;6.968;2022-11-15T05:41:00;9.30;99.90
56725;DHT22;42608;52.776;6.968;2022-11-15T05:43:27;9.30;99.90
56725;DHT22;42608;52.776;6.968;2022-11-15T05:45:53;9.30;99.90
56725;DHT22;42608;52.776;6.968;2022-11-15T05:48:19;9.30;99.90
56725;DHT22;42608;52.776;6.968;2022-11-15T05:50:45;9.30;99.90
56725;DHT22;42608;52.776;6.968;2022-11-15T05:53:11;9.40;99.90
56725;DHT22;42608;52.776;6.968;2022-11-15T05:55:38;9.40;99.90
56725;DHT22;42608;52.776;6.968;2022-11-15T05:58:05;9.40;99.90
56725;DHT22;42608;52.776;6.968;2022-11-15T06:00:30;9.50;99.90
56725;DHT22;42608;52.776;6.968;2022-11-15T06:02:56;9.50;99.90
56725;DHT22;42608;52.776;6.968;2022-11-15T06:05:21;9.50;99.90
56725;DHT22;42608;52.776;6.968;2022-11-15T06:07:47;9.60;99.90
56725;DHT22;42608;52.776;6.968;2022-11-15T06:10:12;9.60;99.90
56725;DHT22;42608;52.776;6.968;2022-11-15T06:12:38;9.70;99.90
56725;DHT22;42608;52.776;6.968;2022-11-15T06:15:03;9.70;99.90
56725;DHT22;42608;52.776;6.968;2022-11-15T06:17:29;9.80;99.90
56725;DHT22;42608;52.776;6.968;2022-11-15T06:19:55;9.80;99.90
56725;DHT22;42608;52.776;6.968;2022-11-15T06:22:20;9.80;99.90
56725;DHT22;42608;52.776;6.968;2022-11-15T06:24:46;9.80;99.90
56725;DHT22;42608;52.776;6.968;2022-11-15T06:27:12;9.90;99.90
56725;DHT22;42608;52.776;6.968;2022-11-15T06:29:37;9.90;99.90
56725;DHT22;42608;52.776;6.968;2022-11-15T06:32:03;9.90;99.90
56725;DHT22;42608;52.776;6.968;2022-11-15T06:34:28;10.00;99.90
56725;DHT22;42608;52.776;6.968;2022-11-15T06:36:54;10.00;99.90
56725;DHT22;42608;52.776;6.968;2022-11-15T06:39:19;10.00;99.90
56725;DHT22;42608;52.776;6.968;2022-11-15T06:41:45;10.10;99.90
56725;DHT22;42608;52.776;6.968;2022-11-15T06:44:11;10.10;99.90
56725;DHT22;42608;52.776;6.968;2022-11-15T06:46:36;10.10;99.90
56725;DHT22;42608;52.776;6.968;2022-11-15T06:49:02;10.20;99.90
56725;DHT22;42608;52.776;6.968;2022-11-15T06:51:28;10.20;99.90
56725;DHT22;42608;52.776;6.968;2022-11-15T06:53:53;10.20;99.90
56725;DHT22;42608;52.776;6.968;2022-11-15T06:56:19;10.20;99.90
56725;DHT22;42608;52.776;6.968;2022-11-15T06:58:45;10.20;99.90
56725;DHT22;42608;52.776;6.968;2022-11-15T07:01:11;10.20;99.90
56725;DHT22;42608;52.776;6.968;2022-11-15T07:03:37;10.20;99.90
56725;DHT22;42608;52.776;6.968;2022-11-15T07:06:03;10.30;99.90
56725;DHT22;42608;52.776;6.968;2022-11-15T07:08:29;10.30;99.90
56725;DHT22;42608;52.776;6.968;2022-11-15T07:10:55;10.30;99.90
56725;DHT22;42608;52.776;6.968;2022-11-15T07:13:26;10.30;99.90
56725;DHT22;42608;52.776;6.968;2022-11-15T07:15:52;10.30;99.90
56725;DHT22;42608;52.776;6.968;2022-11-15T07:18:17;10.30;99.90
56725;DHT22;42608;52.776;6.968;2022-11-15T07:20:43;10.30;99.90
56725;DHT22;42608;52.776;6.968;2022-11-15T07:23:08;10.40;99.90
56725;DHT22;42608;52.776;6.968;2022-11-15T07:25:34;10.40;99.90
56725;DHT22;42608;52.776;6.968;2022-11-15T07:28:00;10.40;99.90
56725;DHT22;42608;52.776;6.968;2022-11-15T07:30:26;10.40;99.90
56725;DHT22;42608;52.776;6.968;2022-11-15T07:32:52;10.40;99.90
56725;DHT22;42608;52.776;6.968;2022-11-15T07:35:18;10.40;99.90
56725;DHT22;42608;52.776;6.968;2022-11-15T07:37:44;10.40;99.90
56725;DHT22;42608;52.776;6.968;2022-11-15T07:40:09;10.40;99.90
56725;DHT22;42608;52.776;6.968;2022-11-15T07:42:35;10.50;99.90
56725;DHT22;42608;52.776;6.968;2022-11-15T07:45:19;10.50;99.90
56725;DHT22;42608;52.776;6.968;2022-11-15T07:47:45;10.50;99.90
56725;DHT22;42608;52.776;6.968;2022-11-15T07:50:11;10.50;99.90
56725;DHT22;42608;52.776;6.968;2022-11-15T07:52:37;10.50;99.90
56725;DHT22;42608;52.776;6.968;2022-11-15T07:55:02;10.50;99.90
56725;DHT22;42608;52.776;6.968;2022-11-15T07:57:29;10.50;99.90
56725;DHT22;42608;52.776;6.968;2022-11-15T07:59:54;10.50;99.90
56725;DHT22;42608;52.776;6.968;2022-11-15T08:02:20;10.50;99.90
56725;DHT22;42608;52.776;6.968;2022-11-15T08:04:45;10.60;99.90
56725;DHT22;42608;52.776;6.968;2022-11-15T08:07:11;10.60;99.90
56725;DHT22;42608;52.776;6.968;2022-11-15T08:09:36;10.60;99.90
56725;DHT22;42608;52.776;6.968;2022-11-15T08:12:02;10.60;99.90
56725;DHT22;42608;52.776;6.968;2022-11-15T08:14:27;10.60;99.90
56725;DHT22;42608;52.776;6.968;2022-11-15T08:16:54;10.60;99.90
56725;DHT22;42608;52.776;6.968;2022-11-15T08:19:20;10.70;99.90
56725;DHT22;42608;52.776;6.968;2022-11-15T08:21:46;10.70;99.90
56725;DHT22;42608;52.776;6.968;2022-11-15T08:24:11;10.70;99.90
56725;DHT22;42608;52.776;6.968;2022-11-15T08:26:37;10.70;99.90
56725;DHT22;42608;52.776;6.968;2022-11-15T08:29:03;10.70;99.90
56725;DHT22;42608;52.776;6.968;2022-11-15T08:31:28;10.70;99.90
56725;DHT22;42608;52.776;6.968;2022-11-15T08:33:54;10.70;99.90
56725;DHT22;42608;52.776;6.968;2022-11-15T08:36:19;10.80;99.90
56725;DHT22;42608;52.776;6.968;2022-11-15T08:38:45;10.80;99.90
56725;DHT22;42608;52.776;6.968;2022-11-15T08:41:14;10.80;99.90
56725;DHT22;42608;52.776;6.968;2022-11-15T08:43:40;10.80;99.90
56725;DHT22;42608;52.776;6.968;2022-11-15T08:46:05;10.80;99.90
56725;DHT22;42608;52.776;6.968;2022-11-15T08:48:31;10.80;99.90
56725;DHT22;42608;52.776;6.968;2022-11-15T08:50:56;10.80;99.90
56725;DHT22;42608;52.776;6.968;2022-11-15T08:53:22;10.80;99.90
56725;DHT22;42608;52.776;6.968;2022-11-15T08:55:48;10.90;99.90
56725;DHT22;42608;52.776;6.968;2022-11-15T08:58:14;10.90;99.90
56725;DHT22;42608;52.776;6.968;2022-11-15T09:00:39;10.90;99.90
56725;DHT22;42608;52.776;6.968;2022-11-15T09:03:05;10.90;99.90
56725;DHT22;42608;52.776;6.968;2022-11-15T09:05:31;10.90;99.90
56725;DHT22;42608;52.776;6.968;2022-11-15T09:07:57;11.00;99.90
56725;DHT22;42608;52.776;6.968;2022-11-15T09:10:22;10.90;99.90
56725;DHT22;42608;52.776;6.968;2022-11-15T09:12:48;11.00;99.90
56725;DHT22;42608;52.776;6.968;2022-11-15T09:15:14;11.00;99.90
56725;DHT22;42608;52.776;6.968;2022-11-15T09:17:40;11.00;99.90
56725;DHT22;42608;52.776;6.968;2022-11-15T09:20:06;11.10;99.90
56725;DHT22;42608;52.776;6.968;2022-11-15T09:22:31;11.10;99.90
56725;DHT22;42608;52.776;6.968;2022-11-15T09:24:57;11.10;99.90
56725;DHT22;42608;52.776;6.968;2022-11-15T09:27:23;11.10;99.90
56725;DHT22;42608;52.776;6.968;2022-11-15T09:29:52;11.20;99.90
56725;DHT22;42608;52.776;6.968;2022-11-15T09:32:17;11.20;99.90
56725;DHT22;42608;52.776;6.968;2022-11-15T09:34:43;11.20;99.90
56725;DHT22;42608;52.776;6.968;2022-11-15T09:37:08;11.20;99.90
56725;DHT22;42608;52.776;6.968;2022-11-15T09:39:34;11.20;99.90
56725;DHT22;42608;52.776;6.968;2022-11-15T09:42:04;11.20;99.90
56725;DHT22;42608;52.776;6.968;2022-11-15T09:49:50;11.30;99.90
56725;DHT22;42608;52.776;6.968;2022-11-15T09:52:16;11.30;99.90
56725;DHT22;42608;52.776;6.968;2022-11-15T09:54:47;11.30;99.90
56725;DHT22;42608;52.776;6.968;2022-11-15T10:05:03;11.30;99.90
56725;DHT22;42608;52.776;6.968;2022-11-15T10:09:58;11.40;99.90
56725;DHT22;42608;52.776;6.968;2022-11-15T10:12:27;11.40;99.90
56725;DHT22;42608;52.776;6.968;2022-11-15T10:14:56;11.40;99.90
56725;DHT22;42608;52.776;6.968;2022-11-15T10:17:35;11.40;99.90
56725;DHT22;42608;52.776;6.968;2022-11-15T10:20:25;11.50;99.90
56725;DHT22;42608;52.776;6.968;2022-11-15T10:23:02;11.50;99.90
56725;DHT22;42608;52.776;6.968;2022-11-15T10:25:33;11.60;99.90
56725;DHT22;42608;52.776;6.968;2022-11-15T10:30:50;11.60;99.90
56725;DHT22;42608;52.776;6.968;2022-11-15T10:33:18;11.70;99.90
56725;DHT22;42608;52.776;6.968;2022-11-15T10:35:45;11.70;99.90
56725;DHT22;42608;52.776;6.968;2022-11-15T10:38:11;11.80;99.90
56725;DHT22;42608;52.776;6.968;2022-11-15T10:40:37;11.80;99.90
56725;DHT22;42608;52.776;6.968;2022-11-15T10:45:35;11.90;99.90
56725;DHT22;42608;52.776;6.968;2022-11-15T10:50:42;11.90;99.90
56725;DHT22;42608;52.776;6.968;2022-11-15T10:53:22;11.90;99.90
56725;DHT22;42608;52.776;6.968;2022-11-15T10:55:49;11.90;99.90
56725;DHT22;42608;52.776;6.968;2022-11-15T10:58:58;12.00;99.90
56725;DHT22;42608;52.776;6.968;2022-11-15T11:01:14;12.00;99.90
56725;DHT22;42608;52.776;6.968;2022-11-15T11:03:42;12.00;99.90
56725;DHT22;42608;52.776;6.968;2022-11-15T11:06:17;12.00;99.90
56725;DHT22;42608;52.776;6.968;2022-11-15T11:08:59;12.00;99.90
56725;DHT22;42608;52.776;6.968;2022-11-15T11:11:44;12.00;99.90
56725;DHT22;42608;52.776;6.968;2022-11-15T11:14:44;12.00;99.90
56725;DHT22;42608;52.776;6.968;2022-11-15T11:22:20;12.10;99.90
56725;DHT22;42608;52.776;6.968;2022-11-15T11:25:07;12.00;99.90
56725;DHT22;42608;52.776;6.968;2022-11-15T11:30:21;12.10;99.90
56725;DHT22;42608;52.776;6.968;2022-11-15T11:37:47;12.20;99.90
56725;DHT22;42608;52.776;6.968;2022-11-15T11:40:24;12.20;99.90
56725;DHT22;42608;52.776;6.968;2022-11-15T11:46:08;12.30;99.90
56725;DHT22;42608;52.776;6.968;2022-11-15T11:48:24;12.20;99.90
56725;DHT22;42608;52.776;6.968;2022-11-15T11:50:51;12.30;99.90
56725;DHT22;42608;52.776;6.968;2022-11-15T11:55:46;12.30;99.90
56725;DHT22;42608;52.776;6.968;2022-11-15T11:58:14;12.30;99.90
56725;DHT22;42608;52.776;6.968;2022-11-15T12:00:45;12.30;99.90
56725;DHT22;42608;52.776;6.968;2022-11-15T12:03:25;12.30;99.90
56725;DHT22;42608;52.776;6.968;2022-11-15T12:05:57;12.40;99.90
56725;DHT22;42608;52.776;6.968;2022-11-15T12:08:30;12.40;99.90
56725;DHT22;42608;52.776;6.968;2022-11-15T12:11:02;12.40;99.90
56725;DHT22;42608;52.776;6.968;2022-11-15T12:13:29;12.40;99.90
56725;DHT22;42608;52.776;6.968;2022-11-15T12:18:44;12.40;99.90
56725;DHT22;42608;52.776;6.968;2022-11-15T12:23:53;12.30;99.90
56725;DHT22;42608;52.776;6.968;2022-11-15T12:26:22;12.30;99.90
56725;DHT22;42608;52.776;6.968;2022-11-15T12:29:09;12.30;99.90
56725;DHT22;42608;52.776;6.968;2022-11-15T12:34:02;12.30;99.90
56725;DHT22;42608;52.776;6.968;2022-11-15T12:36:36;12.30;99.90
56725;DHT22;42608;52.776;6.968;2022-11-15T12:39:04;12.30;99.90
56725;DHT22;42608;52.776;6.968;2022-11-15T12:41:30;12.40;99.90
56725;DHT22;42608;52.776;6.968;2022-11-15T12:43:56;12.40;99.90
56725;DHT22;42608;52.776;6.968;2022-11-15T12:48:54;12.50;99.90
56725;DHT22;42608;52.776;6.968;2022-11-15T12:52:07;12.50;99.90
56725;DHT22;42608;52.776;6.968;2022-11-15T13:02:18;12.70;99.90
56725;DHT22;42608;52.776;6.968;2022-11-15T13:04:44;12.80;99.90
56725;DHT22;42608;52.776;6.968;2022-11-15T13:07:09;12.80;99.90
56725;DHT22;42608;52.776;6.968;2022-11-15T13:09:55;12.80;99.90
56725;DHT22;42608;52.776;6.968;2022-11-15T13:17:35;12.90;99.90
56725;DHT22;42608;52.776;6.968;2022-11-15T13:27:46;12.90;99.90
56725;DHT22;42608;52.776;6.968;2022-11-15T13:30:14;12.90;99.90
56725;DHT22;42608;52.776;6.968;2022-11-15T13:32:41;12.90;99.90
56725;DHT22;42608;52.776;6.968;2022-11-15T13:35:07;12.90;99.90
56725;DHT22;42608;52.776;6.968;2022-11-15T13:37:32;12.90;99.90
56725;DHT22;42608;52.776;6.968;2022-11-15T13:42:43;12.80;99.90
56725;DHT22;42608;52.776;6.968;2022-11-15T13:45:11;12.70;99.90
56725;DHT22;42608;52.776;6.968;2022-11-15T13:47:38;12.80;99.90
56725;DHT22;42608;52.776;6.968;2022-11-15T13:50:03;12.70;99.90
56725;DHT22;42608;52.776;6.968;2022-11-15T13:52:32;12.70;99.90
56725;DHT22;42608;52.776;6.968;2022-11-15T13:57:27;12.60;99.90
56725;DHT22;42608;52.776;6.968;2022-11-15T13:59:54;12.60;99.90
56725;DHT22;42608;52.776;6.968;2022-11-15T14:02:25;12.60;99.90
56725;DHT22;42608;52.776;6.968;2022-11-15T14:04:52;12.60;99.90
56725;DHT22;42608;52.776;6.968;2022-11-15T14:07:19;12.60;99.90
56725;DHT22;42608;52.776;6.968;2022-11-15T14:09:45;12.60;99.90
56725;DHT22;42608;52.776;6.968;2022-11-15T14:14:49;12.60;99.90
56725;DHT22;42608;52.776;6.968;2022-11-15T14:17:19;12.50;99.90
56725;DHT22;42608;52.776;6.968;2022-11-15T14:19:45;12.50;99.90
56725;DHT22;42608;52.776;6.968;2022-11-15T14:22:27;12.50;99.90
56725;DHT22;42608;52.776;6.968;2022-11-15T14:27:38;12.40;99.90
56725;DHT22;42608;52.776;6.968;2022-11-15T14:30:04;12.40;99.90
56725;DHT22;42608;52.776;6.968;2022-11-15T14:32:39;12.40;99.90
56725;DHT22;42608;52.776;6.968;2022-11-15T14:35:09;12.30;99.90
56725;DHT22;42608;52.776;6.968;2022-11-15T14:37:37;12.40;99.90
56725;DHT22;42608;52.776;6.968;2022-11-15T14:40:03;12.30;99.90
56725;DHT22;42608;52.776;6.968;2022-11-15T14:42:29;12.30;99.90
56725;DHT22;42608;52.776;6.968;2022-11-15T14:44:54;12.20;99.90
56725;DHT22;42608;52.776;6.968;2022-11-15T14:47:20;12.20;99.90
56725;DHT22;42608;52.776;6.968;2022-11-15T14:49:46;12.20;99.90
56725;DHT22;42608;52.776;6.968;2022-11-15T14:52:28;12.10;99.90
56725;DHT22;42608;52.776;6.968;2022-11-15T14:54:54;12.10;99.90
56725;DHT22;42608;52.776;6.968;2022-11-15T14:57:20;12.10;99.90
56725;DHT22;42608;52.776;6.968;2022-11-15T14:59:45;12.10;99.90
56725;DHT22;42608;52.776;6.968;2022-11-15T15:02:14;12.00;99.90
56725;DHT22;42608;52.776;6.968;2022-11-15T15:04:41;12.00;99.90
56725;DHT22;42608;52.776;6.968;2022-11-15T15:07:06;11.90;99.90
56725;DHT22;42608;52.776;6.968;2022-11-15T15:09:32;11.90;99.90
56725;DHT22;42608;52.776;6.968;2022-11-15T15:11:57;11.90;99.90
56725;DHT22;42608;52.776;6.968;2022-11-15T15:14:23;11.80;99.90
56725;DHT22;42608;52.776;6.968;2022-11-15T15:16:49;11.80;99.90
56725;DHT22;42608;52.776;6.968;2022-11-15T15:19:14;11.80;99.90
56725;DHT22;42608;52.776;6.968;2022-11-15T15:21:40;11.70;99.90
56725;DHT22;42608;52.776;6.968;2022-11-15T15:24:05;11.70;99.90
56725;DHT22;42608;52.776;6.968;2022-11-15T15:26:31;11.70;99.90
56725;DHT22;42608;52.776;6.968;2022-11-15T15:29:01;11.60;99.90
56725;DHT22;42608;52.776;6.968;2022-11-15T15:31:27;11.60;99.90
56725;DHT22;42608;52.776;6.968;2022-11-15T15:33:52;11.60;99.90
56725;DHT22;42608;52.776;6.968;2022-11-15T15:36:18;11.50;99.90
56725;DHT22;42608;52.776;6.968;2022-11-15T15:38:44;11.50;99.90
56725;DHT22;42608;52.776;6.968;2022-11-15T15:41:12;11.40;99.90
56725;DHT22;42608;52.776;6.968;2022-11-15T15:43:37;11.40;99.90
56725;DHT22;42608;52.776;6.968;2022-11-15T15:46:04;11.30;99.90
56725;DHT22;42608;52.776;6.968;2022-11-15T15:48:30;11.30;99.90
56725;DHT22;42608;52.776;6.968;2022-11-15T15:50:55;11.30;99.90
56725;DHT22;42608;52.776;6.968;2022-11-15T15:53:21;11.20;99.90
56725;DHT22;42608;52.776;6.968;2022-11-15T15:55:46;11.20;99.90
56725;DHT22;42608;52.776;6.968;2022-11-15T15:58:12;11.20;99.90
56725;DHT22;42608;52.776;6.968;2022-11-15T16:00:37;11.10;99.90
56725;DHT22;42608;52.776;6.968;2022-11-15T16:03:04;11.10;99.90
56725;DHT22;42608;52.776;6.968;2022-11-15T16:05:29;11.10;99.90
56725;DHT22;42608;52.776;6.968;2022-11-15T16:07:55;11.00;99.90
56725;DHT22;42608;52.776;6.968;2022-11-15T16:10:22;11.00;99.90
56725;DHT22;42608;52.776;6.968;2022-11-15T16:12:48;11.00;99.90
56725;DHT22;42608;52.776;6.968;2022-11-15T16:15:13;10.90;99.90
56725;DHT22;42608;52.776;6.968;2022-11-15T16:17:40;10.90;99.90
56725;DHT22;42608;52.776;6.968;2022-11-15T16:20:06;10.90;99.90
56725;DHT22;42608;52.776;6.968;2022-11-15T16:22:32;10.90;99.90
56725;DHT22;42608;52.776;6.968;2022-11-15T16:24:57;10.90;99.90
56725;DHT22;42608;52.776;6.968;2022-11-15T16:27:23;10.80;99.90
56725;DHT22;42608;52.776;6.968;2022-11-15T16:29:48;10.90;99.90
56725;DHT22;42608;52.776;6.968;2022-11-15T16:32:14;10.80;99.90
56725;DHT22;42608;52.776;6.968;2022-11-15T16:34:40;10.80;99.90
56725;DHT22;42608;52.776;6.968;2022-11-15T16:37:08;10.80;99.90
56725;DHT22;42608;52.776;6.968;2022-11-15T16:39:37;10.80;99.90
56725;DHT22;42608;52.776;6.968;2022-11-15T16:42:03;10.70;99.90
56725;DHT22;42608;52.776;6.968;2022-11-15T16:44:28;10.70;99.90
56725;DHT22;42608;52.776;6.968;2022-11-15T16:46:54;10.70;99.90
56725;DHT22;42608;52.776;6.968;2022-11-15T16:49:20;10.70;99.90
56725;DHT22;42608;52.776;6.968;2022-11-15T16:51:46;10.70;99.90
56725;DHT22;42608;52.776;6.968;2022-11-15T16:54:12;10.70;99.90
56725;DHT22;42608;52.776;6.968;2022-11-15T16:56:38;10.70;99.90
56725;DHT22;42608;52.776;6.968;2022-11-15T16:59:04;10.70;99.90
56725;DHT22;42608;52.776;6.968;2022-11-15T17:01:31;10.70;99.90
56725;DHT22;42608;52.776;6.968;2022-11-15T17:03:57;10.70;99.90
56725;DHT22;42608;52.776;6.968;2022-11-15T17:06:23;10.70;99.90
56725;DHT22;42608;52.776;6.968;2022-11-15T17:08:49;10.70;99.90
56725;DHT22;42608;52.776;6.968;2022-11-15T17:11:15;10.60;99.90
56725;DHT22;42608;52.776;6.968;2022-11-15T17:13:41;10.60;99.90
56725;DHT22;42608;52.776;6.968;2022-11-15T17:16:14;10.60;99.90
56725;DHT22;42608;52.776;6.968;2022-11-15T17:18:40;10.60;99.90
56725;DHT22;42608;52.776;6.968;2022-11-15T17:21:11;10.70;99.90
56725;DHT22;42608;52.776;6.968;2022-11-15T17:23:37;10.70;99.90
56725;DHT22;42608;52.776;6.968;2022-11-15T17:26:03;10.70;99.90
56725;DHT22;42608;52.776;6.968;2022-11-15T17:28:30;10.70;99.90
56725;DHT22;42608;52.776;6.968;2022-11-15T17:30:56;10.70;99.90
56725;DHT22;42608;52.776;6.968;2022-11-15T17:33:21;10.70;99.90
56725;DHT22;42608;52.776;6.968;2022-11-15T17:35:53;10.70;99.90
56725;DHT22;42608;52.776;6.968;2022-11-15T17:38:19;10.70;99.90
56725;DHT22;42608;52.776;6.968;2022-11-15T17:40:45;10.70;99.90
56725;DHT22;42608;52.776;6.968;2022-11-15T17:43:10;10.60;99.90
56725;DHT22;42608;52.776;6.968;2022-11-15T17:45:38;10.70;99.90
56725;DHT22;42608;52.776;6.968;2022-11-15T17:48:04;10.60;99.90